createdAt,value
2023-04-16T00:00:14.268Z,9.25
2023-04-16T00:02:42.499Z,8.10
2023-04-16T00:05:12.124Z,7.70
2023-04-16T00:07:41.062Z,7.53
2023-04-16T00:10:09.905Z,8.05
2023-04-16T00:12:38.030Z,8.10
2023-04-16T00:15:06.622Z,7.63
2023-04-16T00:17:34.776Z,7.65
2023-04-16T00:20:02.948Z,7.72
2023-04-16T00:22:32.447Z,7.00
2023-04-16T00:25:00.524Z,7.13
2023-04-16T00:27:28.658Z,7.47
2023-04-16T00:29:56.740Z,6.80
2023-04-16T00:32:24.956Z,6.57
2023-04-16T00:34:53.062Z,6.72
2023-04-16T00:37:21.164Z,6.65
2023-04-16T00:39:51.280Z,6.53
2023-04-16T00:42:19.390Z,6.15
2023-04-16T00:44:47.836Z,6.40
2023-04-16T00:47:16.171Z,6.22
2023-04-16T00:49:44.419Z,6.65
2023-04-16T00:52:13.079Z,6.70
2023-04-16T00:54:41.535Z,6.28
2023-04-16T00:57:11.644Z,6.03
2023-04-16T00:59:39.881Z,6.30
2023-04-16T01:02:08.486Z,5.78
2023-04-16T01:04:36.985Z,5.60
2023-04-16T01:07:05.172Z,6.43
2023-04-16T01:09:33.255Z,5.50
2023-04-16T01:12:02.132Z,6.18
2023-04-16T01:14:36.164Z,5.82
2023-04-16T01:17:04.518Z,5.97
2023-04-16T01:19:32.647Z,5.90
2023-04-16T01:22:02.148Z,5.72
2023-04-16T01:24:30.254Z,5.63
2023-04-16T01:26:59.227Z,5.55
2023-04-16T01:29:27.431Z,6.03
2023-04-16T01:31:55.562Z,5.85
2023-04-16T01:34:23.677Z,5.88
2023-04-16T01:36:51.980Z,5.28
2023-04-16T01:39:21.481Z,5.75
2023-04-16T01:41:49.613Z,5.38
2023-04-16T01:44:17.709Z,5.32
2023-04-16T01:46:46.381Z,5.75
2023-04-16T01:49:14.542Z,5.65
2023-04-16T01:51:42.867Z,5.45
2023-04-16T01:54:11.196Z,5.00
2023-04-16T01:56:40.750Z,5.45
2023-04-16T01:59:09.015Z,5.40
2023-04-16T02:01:37.426Z,6.03
2023-04-16T02:04:06.594Z,5.50
2023-04-16T02:06:34.703Z,6.07
2023-04-16T02:09:02.861Z,5.55
2023-04-16T02:11:30.972Z,5.13
2023-04-16T02:14:00.505Z,5.53
2023-04-16T02:16:28.635Z,5.40
2023-04-16T02:18:56.774Z,5.40
2023-04-16T02:21:24.918Z,5.47
2023-04-16T02:23:53.048Z,5.30
2023-04-16T02:26:21.259Z,5.13
2023-04-16T02:28:49.363Z,5.45
2023-04-16T02:31:19.692Z,5.25
2023-04-16T02:33:47.848Z,5.88
2023-04-16T02:36:15.985Z,5.57
2023-04-16T02:38:44.127Z,4.93
2023-04-16T02:41:12.299Z,5.60
2023-04-16T02:43:40.866Z,5.07
2023-04-16T02:46:09.030Z,5.25
2023-04-16T02:48:38.796Z,4.97
2023-04-16T02:51:07.238Z,5.47
2023-04-16T02:53:35.688Z,5.22
2023-04-16T02:56:03.778Z,4.88
2023-04-16T02:58:31.876Z,5.72
2023-04-16T03:01:00.188Z,5.10
2023-04-16T03:03:28.353Z,5.18
2023-04-16T03:05:57.849Z,5.13
2023-04-16T03:08:26.448Z,5.32
2023-04-16T03:10:54.572Z,4.38
2023-04-16T03:13:22.729Z,5.13
2023-04-16T03:15:50.993Z,4.82
2023-04-16T03:18:19.250Z,4.97
2023-04-16T03:20:47.320Z,4.85
2023-04-16T03:23:16.820Z,4.97
2023-04-16T03:25:47.015Z,5.10
2023-04-16T03:28:15.276Z,4.97
2023-04-16T03:30:43.384Z,4.88
2023-04-16T03:33:11.625Z,5.53
2023-04-16T03:35:39.701Z,5.30
2023-04-16T03:38:07.810Z,4.63
2023-04-16T03:40:37.283Z,4.90
2023-04-16T03:43:05.381Z,5.22
2023-04-16T03:45:33.484Z,5.03
2023-04-16T03:48:01.605Z,4.60
2023-04-16T03:50:29.689Z,4.88
2023-04-16T03:52:57.793Z,5.15
2023-04-16T03:55:25.891Z,4.43
2023-04-16T03:57:55.815Z,4.72
2023-04-16T04:00:23.925Z,4.88
2023-04-16T04:02:52.125Z,5.15
2023-04-16T04:05:20.404Z,5.03
2023-04-16T04:07:48.508Z,4.95
2023-04-16T04:10:16.796Z,4.68
2023-04-16T04:12:45.026Z,4.57
2023-04-16T04:15:14.882Z,5.40
2023-04-16T04:17:43.102Z,4.63
2023-04-16T04:20:12.579Z,5.05
2023-04-16T04:22:40.694Z,4.53
2023-04-16T04:25:09.902Z,4.70
2023-04-16T04:27:38.027Z,4.43
2023-04-16T04:30:08.186Z,5.00
2023-04-16T04:32:37.730Z,4.50
2023-04-16T04:35:06.611Z,4.85
2023-04-16T04:37:34.742Z,4.60
2023-04-16T04:40:02.803Z,4.93
2023-04-16T04:42:30.912Z,4.43
2023-04-16T04:44:58.993Z,4.68
2023-04-16T04:47:27.213Z,4.35
2023-04-16T04:49:56.777Z,4.53
2023-04-16T04:52:24.916Z,4.68
2023-04-16T04:54:53.601Z,4.85
2023-04-16T04:57:21.794Z,4.35
2023-04-16T04:59:49.885Z,4.38
2023-04-16T05:02:18.141Z,4.40
2023-04-16T05:04:46.400Z,4.75
2023-04-16T05:07:15.894Z,4.60
2023-04-16T05:09:43.966Z,4.35
2023-04-16T05:12:12.072Z,3.90
2023-04-16T05:14:40.197Z,4.75
2023-04-16T05:17:08.917Z,4.35
2023-04-16T05:19:37.032Z,4.30
2023-04-16T05:22:05.143Z,4.75
2023-04-16T05:24:34.604Z,4.55
2023-04-16T05:27:02.682Z,4.68
2023-04-16T05:29:30.763Z,4.40
2023-04-16T05:31:58.869Z,4.03
2023-04-16T05:34:26.948Z,4.38
2023-04-16T05:36:55.075Z,6.60
2023-04-16T05:39:23.235Z,7.20
2023-04-16T05:41:52.769Z,6.40
2023-04-16T05:44:20.908Z,5.93
2023-04-16T05:46:49.029Z,5.95
2023-04-16T05:49:19.093Z,6.57
2023-04-16T05:54:15.605Z,5.68
2023-04-16T05:56:44.194Z,5.85
2023-04-16T05:59:13.649Z,5.40
2023-04-16T06:01:42.128Z,5.88
2023-04-16T06:04:10.300Z,5.90
2023-04-16T06:06:38.668Z,5.70
2023-04-16T06:09:06.862Z,5.38
2023-04-16T06:11:36.434Z,5.80
2023-04-16T06:14:04.662Z,5.53
2023-04-16T06:16:34.233Z,5.45
2023-04-16T06:19:02.431Z,17.90
2023-04-16T06:21:31.809Z,22.98
2023-04-16T06:23:59.960Z,24.95
2023-04-16T06:26:28.126Z,24.52
2023-04-16T06:28:56.208Z,24.63
2023-04-16T06:31:24.322Z,25.73
2023-04-16T06:33:53.813Z,26.25
2023-04-16T06:36:21.927Z,26.60
2023-04-16T06:38:50.001Z,27.80
2023-04-16T06:41:18.165Z,27.95
2023-04-16T06:43:46.382Z,26.63
2023-04-16T06:46:14.548Z,24.88
2023-04-16T06:48:42.641Z,23.35
2023-04-16T06:51:13.177Z,24.30
2023-04-16T06:53:42.458Z,22.52
2023-04-16T06:56:10.895Z,21.87
2023-04-16T06:58:39.000Z,20.67
2023-04-16T07:01:07.327Z,22.52
2023-04-16T07:03:35.766Z,22.92
2023-04-16T07:06:04.068Z,21.70
2023-04-16T07:08:33.520Z,22.90
2023-04-16T07:11:01.763Z,22.35
2023-04-16T07:13:29.876Z,20.92
2023-04-16T07:15:57.975Z,21.98
2023-04-16T07:18:26.076Z,19.55
2023-04-16T07:20:54.250Z,19.33
2023-04-16T07:23:22.324Z,19.45
2023-04-16T07:25:51.811Z,18.15
2023-04-16T07:28:20.326Z,17.30
2023-04-16T07:30:48.474Z,16.95
2023-04-16T07:33:16.592Z,16.48
2023-04-16T07:35:45.340Z,16.13
2023-04-16T07:38:13.524Z,18.27
2023-04-16T07:40:41.675Z,18.42
2023-04-16T07:43:11.682Z,20.95
2023-04-16T07:48:09.656Z,23.33
2023-04-16T07:50:37.966Z,23.17
2023-04-16T07:53:07.666Z,23.02
2023-04-16T07:55:35.949Z,23.17
2023-04-16T07:58:04.063Z,22.83
2023-04-16T08:00:33.599Z,23.73
2023-04-16T08:03:01.900Z,24.40
2023-04-16T08:05:30.129Z,22.98
2023-04-16T08:07:58.381Z,24.05
2023-04-16T08:10:26.550Z,24.30
2023-04-16T08:12:55.023Z,23.55
2023-04-16T08:15:23.095Z,20.55
2023-04-16T08:17:52.703Z,18.50
2023-04-16T08:20:21.016Z,20.02
2023-04-16T08:22:49.729Z,19.80
2023-04-16T08:25:17.950Z,19.95
2023-04-16T08:27:46.048Z,20.27
2023-04-16T08:30:15.195Z,19.67
2023-04-16T08:32:43.817Z,19.70
2023-04-16T08:35:13.387Z,19.92
2023-04-16T08:37:41.491Z,18.98
2023-04-16T08:40:10.540Z,19.63
2023-04-16T08:42:42.233Z,21.17
2023-04-16T08:45:15.547Z,18.63
2023-04-16T08:47:47.813Z,16.77
2023-04-16T08:50:17.933Z,16.65
2023-04-16T08:52:52.455Z,16.25
2023-04-16T08:55:23.676Z,15.73
2023-04-16T08:57:55.164Z,14.05
2023-04-16T09:00:23.455Z,12.63
2023-04-16T09:02:52.185Z,11.98
2023-04-16T09:05:25.650Z,11.07
2023-04-16T09:07:54.560Z,11.63
2023-04-16T09:10:22.986Z,10.07
2023-04-16T09:12:51.286Z,9.65
2023-04-16T09:15:22.181Z,9.57
2023-04-16T09:17:50.471Z,9.25
2023-04-16T09:20:18.774Z,8.90
2023-04-16T09:22:48.505Z,8.20
2023-04-16T09:25:16.689Z,8.70
2023-04-16T09:27:45.811Z,8.80
2023-04-16T09:30:24.544Z,8.30
2023-04-16T09:32:53.526Z,8.55
2023-04-16T09:35:22.370Z,21.90
2023-04-16T09:37:58.847Z,21.17
2023-04-16T09:40:30.519Z,20.08
2023-04-16T09:43:00.572Z,17.33
2023-04-16T09:48:05.407Z,15.05
2023-04-16T09:50:33.613Z,14.38
2023-04-16T09:53:04.638Z,13.45
2023-04-16T09:55:33.686Z,12.55
2023-04-16T09:58:02.463Z,13.60
2023-04-16T10:00:31.396Z,12.32
2023-04-16T10:03:06.745Z,11.73
2023-04-16T10:05:35.127Z,11.43
2023-04-16T10:08:11.944Z,10.90
2023-04-16T10:10:40.502Z,10.15
2023-04-16T10:13:08.938Z,9.85
2023-04-16T10:15:37.402Z,10.73
2023-04-16T10:18:06.368Z,9.35
2023-04-16T10:20:34.617Z,9.87
2023-04-16T10:23:05.169Z,9.48
2023-04-16T10:25:33.755Z,8.90
2023-04-16T10:28:02.003Z,9.30
2023-04-16T10:30:30.615Z,8.88
2023-04-16T10:33:00.561Z,8.48
2023-04-16T10:35:28.893Z,8.25
2023-04-16T10:37:58.404Z,9.27
2023-04-16T10:40:29.525Z,14.40
2023-04-16T10:42:58.954Z,14.13
2023-04-16T10:45:31.310Z,11.80
2023-04-16T10:47:59.756Z,11.45
2023-04-16T10:50:37.102Z,11.18
2023-04-16T10:53:19.803Z,9.93
2023-04-16T10:56:14.225Z,10.35
2023-04-16T10:58:42.877Z,9.68
2023-04-16T11:01:17.012Z,8.98
2023-04-16T11:03:47.747Z,9.18
2023-04-16T11:06:17.768Z,8.45
2023-04-16T11:11:24.715Z,11.65
2023-04-16T11:16:27.643Z,10.43
2023-04-16T11:18:57.105Z,9.75
2023-04-16T11:21:26.728Z,9.77
2023-04-16T11:23:56.735Z,8.70
2023-04-16T11:26:27.566Z,9.38
2023-04-16T11:28:57.352Z,9.00
2023-04-16T11:31:27.367Z,9.00
2023-04-16T11:33:57.786Z,8.45
2023-04-16T11:36:27.758Z,9.35
2023-04-16T11:39:03.823Z,8.20
2023-04-16T11:41:33.374Z,8.65
2023-04-16T11:44:01.624Z,8.60
2023-04-16T11:46:40.631Z,8.63
2023-04-16T11:49:09.414Z,7.80
2023-04-16T11:51:42.354Z,8.00
2023-04-16T11:54:12.215Z,8.13
2023-04-16T11:56:48.467Z,7.57
2023-04-16T11:59:18.167Z,7.55
2023-04-16T12:01:49.228Z,7.72
2023-04-16T12:04:19.723Z,7.60
2023-04-16T12:07:07.387Z,8.20
2023-04-16T12:09:38.703Z,7.60
2023-04-16T12:12:27.367Z,7.43
2023-04-16T12:14:56.899Z,7.10
2023-04-16T12:17:25.542Z,6.97
2023-04-16T12:19:56.636Z,6.38
2023-04-16T12:22:31.465Z,6.38
2023-04-16T12:25:04.128Z,6.63
2023-04-16T12:27:48.572Z,7.10
2023-04-16T12:30:19.175Z,7.13
2023-04-16T12:32:49.793Z,6.97
2023-04-16T12:35:31.534Z,7.10
2023-04-16T12:37:59.735Z,6.93
2023-04-16T12:40:27.923Z,6.68
2023-04-16T12:42:57.445Z,7.00
2023-04-16T12:45:26.615Z,6.95
2023-04-16T12:47:55.852Z,6.47
2023-04-16T12:50:24.292Z,6.38
2023-04-16T12:52:52.560Z,7.10
2023-04-16T12:55:21.006Z,7.35
2023-04-16T12:57:49.845Z,6.82
2023-04-16T13:00:19.761Z,6.60
2023-04-16T13:02:48.143Z,6.90
2023-04-16T13:05:19.187Z,6.78
2023-04-16T13:07:47.588Z,6.75
2023-04-16T13:10:16.854Z,6.45
2023-04-16T13:12:46.553Z,6.55
2023-04-16T13:17:44.036Z,5.90
2023-04-16T13:20:12.498Z,6.25
2023-04-16T13:22:40.837Z,6.20
2023-04-16T13:25:10.335Z,6.43
2023-04-16T13:27:38.462Z,6.40
2023-04-16T13:30:07.775Z,6.57
2023-04-16T13:32:35.971Z,6.50
2023-04-16T13:35:06.094Z,6.18
2023-04-16T13:37:34.173Z,5.88
2023-04-16T13:40:02.324Z,6.50
2023-04-16T13:42:30.451Z,5.72
2023-04-16T13:44:58.968Z,6.22
2023-04-16T13:47:27.254Z,6.28
2023-04-16T13:49:55.450Z,5.93
2023-04-16T13:52:24.902Z,6.45
2023-04-16T13:54:53.060Z,5.93
2023-04-16T13:57:21.259Z,6.05
2023-04-16T13:59:49.422Z,6.00
2023-04-16T14:02:17.593Z,6.47
2023-04-16T14:04:46.191Z,6.35
2023-04-16T14:07:14.318Z,5.50
2023-04-16T14:09:44.075Z,12.88
2023-04-16T14:12:12.176Z,15.20
2023-04-16T14:14:41.015Z,12.85
2023-04-16T14:17:09.087Z,11.30
2023-04-16T14:19:37.191Z,10.30
2023-04-16T14:22:06.132Z,10.18
2023-04-16T14:24:35.118Z,8.80
2023-04-16T14:27:04.724Z,8.32
2023-04-16T14:29:32.832Z,8.77
2023-04-16T14:32:00.984Z,7.82
2023-04-16T14:34:29.179Z,7.82
2023-04-16T14:36:58.055Z,7.10
2023-04-16T14:39:26.167Z,6.80
2023-04-16T14:41:54.275Z,7.18
2023-04-16T14:44:23.745Z,6.35
2023-04-16T14:46:51.870Z,6.47
2023-04-16T14:49:19.934Z,6.45
2023-04-16T14:51:48.302Z,6.53
2023-04-16T14:54:16.467Z,6.18
2023-04-16T14:56:44.596Z,6.43
2023-04-16T14:59:12.891Z,6.40
2023-04-16T15:01:42.846Z,6.60
2023-04-16T15:04:11.341Z,5.95
2023-04-16T15:06:39.598Z,6.45
2023-04-16T15:09:08.807Z,6.65
2023-04-16T15:11:37.093Z,6.60
2023-04-16T15:14:05.488Z,6.78
2023-04-16T15:16:33.752Z,6.70
2023-04-16T15:19:05.077Z,6.38
2023-04-16T15:21:33.507Z,7.30
2023-04-16T15:24:01.701Z,7.55
2023-04-16T15:26:30.372Z,7.95
2023-04-16T15:28:58.461Z,6.97
2023-04-16T15:31:26.748Z,7.30
2023-04-16T15:33:56.095Z,7.22
2023-04-16T15:36:26.694Z,8.00
2023-04-16T15:38:54.978Z,8.20
2023-04-16T15:41:23.242Z,7.30
2023-04-16T15:43:51.347Z,7.80
2023-04-16T15:46:19.519Z,8.07
2023-04-16T15:48:47.604Z,7.47
2023-04-16T15:51:15.764Z,7.78
2023-04-16T15:53:45.467Z,7.70
2023-04-16T15:56:13.577Z,7.90
2023-04-16T15:58:41.685Z,7.97
2023-04-16T16:01:09.828Z,8.40
2023-04-16T16:03:38.034Z,8.23
2023-04-16T16:06:08.488Z,10.15
2023-04-16T16:08:38.255Z,9.93
2023-04-16T16:11:08.211Z,9.07
2023-04-16T16:13:37.020Z,9.05
2023-04-16T16:16:05.312Z,8.18
2023-04-16T16:18:33.444Z,7.90
2023-04-16T16:21:01.636Z,7.78
2023-04-16T16:23:29.823Z,7.43
2023-04-16T16:25:57.976Z,6.70
2023-04-16T16:28:27.463Z,8.25
2023-04-16T16:30:55.859Z,7.55
2023-04-16T16:33:23.946Z,7.82
2023-04-16T16:35:52.078Z,7.68
2023-04-16T16:38:20.171Z,7.18
2023-04-16T16:40:48.293Z,7.53
2023-04-16T16:43:16.433Z,6.85
2023-04-16T16:45:46.552Z,7.10
2023-04-16T16:48:14.669Z,6.82
2023-04-16T16:50:42.788Z,7.18
2023-04-16T16:53:10.869Z,7.22
2023-04-16T16:55:39.391Z,6.18
2023-04-16T16:58:07.469Z,6.15
2023-04-16T17:00:36.131Z,6.25
2023-04-16T17:03:05.847Z,5.95
2023-04-16T17:05:34.136Z,6.22
2023-04-16T17:08:02.291Z,6.50
2023-04-16T17:10:30.680Z,6.38
2023-04-16T17:12:58.755Z,6.20
2023-04-16T17:15:26.925Z,6.07
2023-04-16T17:17:58.036Z,7.03
2023-04-16T17:20:27.569Z,6.05
2023-04-16T17:22:55.653Z,7.47
2023-04-16T17:25:23.790Z,9.32
2023-04-16T17:27:51.858Z,8.48
2023-04-16T17:30:20.198Z,7.95
2023-04-16T17:32:48.305Z,8.20
2023-04-16T17:35:16.460Z,7.22
2023-04-16T17:37:46.036Z,7.40
2023-04-16T17:40:15.672Z,6.85
2023-04-16T17:42:43.761Z,7.65
2023-04-16T17:45:12.801Z,7.15
2023-04-16T17:47:41.170Z,7.20
2023-04-16T17:50:10.099Z,6.95
2023-04-16T17:52:38.616Z,6.63
2023-04-16T17:55:08.677Z,7.18
2023-04-16T17:57:37.223Z,6.72
2023-04-16T18:00:10.383Z,6.10
2023-04-16T18:02:40.674Z,7.30
2023-04-16T18:05:09.495Z,6.88
2023-04-16T18:07:38.943Z,6.95
2023-04-16T18:10:10.317Z,6.78
2023-04-16T18:12:38.396Z,7.35
2023-04-16T18:15:07.472Z,6.78
2023-04-16T18:17:35.681Z,6.73
2023-04-16T18:20:05.480Z,6.55
2023-04-16T18:22:33.555Z,7.30
2023-04-16T18:25:01.647Z,6.72
2023-04-16T18:27:31.149Z,7.35
2023-04-16T18:29:59.520Z,7.45
2023-04-16T18:32:30.864Z,7.55
2023-04-16T18:34:59.474Z,7.95
2023-04-16T18:37:27.550Z,7.10
2023-04-16T18:39:58.003Z,7.60
2023-04-16T18:42:28.213Z,7.10
2023-04-16T18:44:59.369Z,7.28
2023-04-16T18:47:27.695Z,6.72
2023-04-16T18:49:55.872Z,7.38
2023-04-16T18:52:23.962Z,7.47
2023-04-16T18:54:52.217Z,7.22
2023-04-16T18:57:20.311Z,6.55
2023-04-16T18:59:48.422Z,7.35
2023-04-16T19:02:17.923Z,6.50
2023-04-16T19:04:46.437Z,6.78
2023-04-16T19:07:14.517Z,7.25
2023-04-16T19:09:42.634Z,7.15
2023-04-16T19:12:10.950Z,7.53
2023-04-16T19:14:39.054Z,7.32
2023-04-16T19:17:07.136Z,7.07
2023-04-16T19:19:36.714Z,6.78
2023-04-16T19:22:04.856Z,7.25
2023-04-16T19:24:34.209Z,7.47
2023-04-16T19:27:02.616Z,7.35
2023-04-16T19:29:34.242Z,6.95
2023-04-16T19:32:02.783Z,7.38
2023-04-16T19:34:30.991Z,6.78
2023-04-16T19:37:00.473Z,6.40
2023-04-16T19:39:28.814Z,6.82
2023-04-16T19:41:57.741Z,6.43
2023-04-16T19:44:27.625Z,7.05
2023-04-16T19:49:25.244Z,6.60
2023-04-16T19:51:54.720Z,6.60
2023-04-16T19:54:24.199Z,6.50
2023-04-16T19:56:52.846Z,6.93
2023-04-16T19:59:21.624Z,6.38
2023-04-16T20:01:49.767Z,6.95
2023-04-16T20:04:18.441Z,6.43
2023-04-16T20:06:46.811Z,6.75
2023-04-16T20:09:15.042Z,6.25
2023-04-16T20:11:44.509Z,6.40
2023-04-16T20:14:12.555Z,6.70
2023-04-16T20:16:40.989Z,6.55
2023-04-16T20:19:09.230Z,7.35
2023-04-16T20:21:37.398Z,6.32
2023-04-16T20:24:05.643Z,6.32
2023-04-16T20:26:34.530Z,6.70
2023-04-16T20:29:04.218Z,5.97
2023-04-16T20:31:32.375Z,6.00
2023-04-16T20:34:00.600Z,6.13
2023-04-16T20:36:28.968Z,6.00
2023-04-16T20:38:57.084Z,7.72
2023-04-16T20:41:25.263Z,9.63
2023-04-16T20:43:53.982Z,7.80
2023-04-16T20:46:24.460Z,7.20
2023-04-16T20:48:52.762Z,7.60
2023-04-16T20:51:21.565Z,7.95
2023-04-16T20:53:52.085Z,7.38
2023-04-16T20:56:20.572Z,6.68
2023-04-16T20:58:48.694Z,7.55
2023-04-16T21:01:18.304Z,7.95
2023-04-16T21:03:48.094Z,7.53
2023-04-16T21:06:17.825Z,6.60
2023-04-16T21:08:45.978Z,6.80
2023-04-16T21:11:14.093Z,7.05
2023-04-16T21:13:42.194Z,7.93
2023-04-16T21:16:12.426Z,6.88
2023-04-16T21:18:40.666Z,7.28
2023-04-16T21:21:10.174Z,6.63
2023-04-16T21:23:38.259Z,6.18
2023-04-16T21:26:06.495Z,6.75
2023-04-16T21:28:34.598Z,6.47
2023-04-16T21:31:02.744Z,6.70
2023-04-16T21:33:31.069Z,6.10
2023-04-16T21:35:59.185Z,6.22
2023-04-16T21:38:28.714Z,6.15
2023-04-16T21:40:56.935Z,6.13
2023-04-16T21:43:25.068Z,6.25
2023-04-16T21:45:54.473Z,6.60
2023-04-16T21:48:23.016Z,6.43
2023-04-16T21:50:56.239Z,6.55
2023-04-16T21:53:24.392Z,6.40
2023-04-16T21:55:53.879Z,6.25
2023-04-16T21:58:21.959Z,6.18
2023-04-16T22:00:50.103Z,6.43
2023-04-16T22:03:18.761Z,5.95
2023-04-16T22:05:47.071Z,6.22
2023-04-16T22:08:24.242Z,6.00
2023-04-16T22:10:58.102Z,6.00
2023-04-16T22:13:27.039Z,5.10
2023-04-16T22:15:55.882Z,5.85
2023-04-16T22:18:25.546Z,6.10
2023-04-16T22:20:54.976Z,6.28
2023-04-16T22:23:23.197Z,6.15
2023-04-16T22:25:51.842Z,5.93
2023-04-16T22:28:21.314Z,5.65
2023-04-16T22:30:49.460Z,5.55
2023-04-16T22:33:17.619Z,5.88
2023-04-16T22:35:46.118Z,5.75
2023-04-16T22:38:14.323Z,5.97
2023-04-16T22:40:42.436Z,5.55
2023-04-16T22:43:10.503Z,5.80
2023-04-16T22:45:41.146Z,5.57
2023-04-16T22:48:09.336Z,5.55
2023-04-16T22:50:37.459Z,5.68
2023-04-16T22:53:05.608Z,5.65
2023-04-16T22:55:33.745Z,5.60
2023-04-16T22:58:01.855Z,6.05
2023-04-16T23:00:29.959Z,5.13
2023-04-16T23:02:59.547Z,5.70
2023-04-16T23:05:27.921Z,12.07
2023-04-16T23:07:56.145Z,13.07
2023-04-16T23:10:24.315Z,9.48
2023-04-16T23:12:52.442Z,8.77
2023-04-16T23:15:20.622Z,8.52
2023-04-16T23:17:49.360Z,8.98
2023-04-16T23:20:19.046Z,7.88
2023-04-16T23:22:47.607Z,8.35
2023-04-16T23:25:15.827Z,8.07
2023-04-16T23:27:43.939Z,7.93
2023-04-16T23:30:12.824Z,8.23
2023-04-16T23:32:41.118Z,7.13
2023-04-16T23:35:10.461Z,7.05
2023-04-16T23:37:40.229Z,7.00
2023-04-16T23:40:09.555Z,6.90
2023-04-16T23:42:37.671Z,6.90
2023-04-16T23:45:06.282Z,6.80
2023-04-16T23:47:34.501Z,6.82
2023-04-16T23:50:03.230Z,6.25
2023-04-16T23:52:31.346Z,7.25
2023-04-16T23:55:00.845Z,6.57
2023-04-16T23:57:28.945Z,6.22
2023-04-16T23:59:57.060Z,6.13
